Time;durP1;ratioP1;P1;durP2;ratioP2;P2;SDS_P1;SDS_P2;PMS_P1;PMS_P2;Temp;Humidity;BMP_temperature;BMP_pressure;BME280_temperature;BME280_humidity;BME280_pressure;Samples;Min_cycle;Max_cycle;Signal;HPM_P1;HPM_P2
2022/08/12 00:44:41;;;;;;;9.93;6.08;;;;;;;13.05;92.20;95014.84;1725984;81;20993;-51
2022/08/12 00:47:08;;;;;;;7.17;5.40;;;;;;;13.07;92.30;95015.15;1721139;82;20999;-51
2022/08/12 00:49:36;;;;;;;11.57;5.30;;;;;;;13.06;92.07;95020.52;1739720;80;21018;-52
2022/08/12 00:52:10;;;;;;;6.58;5.80;;;;;;;13.01;91.61;95014.19;1738875;80;21138;-51
2022/08/12 00:54:53;;;;;;;6.60;5.95;;;;;;;12.97;91.54;95013.57;1739864;82;21117;-52
2022/08/12 00:57:27;;;;;;;7.33;6.10;;;;;;;12.95;91.81;95017.41;1727089;80;21049;-51
2022/08/12 00:59:59;;;;;;;6.55;4.90;;;;;;;12.92;91.37;95014.14;1726403;80;21054;-51
2022/08/12 01:02:34;;;;;;;7.45;5.62;;;;;;;12.92;91.88;95016.31;1719964;82;20950;-51
2022/08/12 01:13:33;;;;;;;6.35;5.45;;;;;;;12.77;90.58;95012.56;1723402;80;20994;-50
2022/08/12 01:16:03;;;;;;;7.25;5.92;;;;;;;12.74;90.62;95015.45;1731548;81;21516;-50
2022/08/12 01:18:35;;;;;;;8.33;5.75;;;;;;;12.67;90.69;95010.98;1724406;80;21118;-50
2022/08/12 01:21:33;;;;;;;15.50;8.67;;;;;;;12.62;90.90;95002.52;1712192;81;20985;-51
2022/08/12 01:24:31;;;;;;;10.38;7.67;;;;;;;12.57;91.36;95007.25;1720010;81;22534;-51
2022/08/12 01:27:01;;;;;;;14.98;9.05;;;;;;;12.55;92.01;95005.56;1675091;82;20976;-50
2022/08/12 01:29:31;;;;;;;10.65;7.05;;;;;;;12.54;92.21;95007.54;1719384;82;20946;-50
2022/08/12 01:32:00;;;;;;;11.45;7.40;;;;;;;12.52;92.27;95007.85;1715497;82;21251;-51
2022/08/12 01:34:35;;;;;;;8.43;7.53;;;;;;;12.50;92.46;95000.64;1712389;82;21063;-51
2022/08/12 01:37:03;;;;;;;9.95;6.75;;;;;;;12.50;92.58;95002.02;1723977;81;21010;-50
2022/08/12 01:39:35;;;;;;;12.80;7.37;;;;;;;12.52;92.37;94997.41;1727914;80;20970;-51
2022/08/12 01:42:06;;;;;;;13.30;7.70;;;;;;;12.52;92.07;94993.27;1717038;80;20939;-51
2022/08/12 01:44:34;;;;;;;12.45;6.80;;;;;;;12.52;92.09;94999.58;1724630;81;21762;-51
2022/08/12 01:47:42;;;;;;;8.50;6.37;;;;;;;12.51;91.97;94997.25;1713994;80;21049;-50
2022/08/12 01:50:21;;;;;;;11.00;6.80;;;;;;;12.45;91.70;94995.69;1724277;81;20962;-51
2022/08/12 01:53:05;;;;;;;8.50;6.30;;;;;;;12.44;91.91;94992.02;1720427;80;21182;-51
2022/08/12 01:55:35;;;;;;;7.30;5.85;;;;;;;12.42;91.99;94989.70;1727667;80;21430;-50
2022/08/12 01:58:27;;;;;;;9.10;5.83;;;;;;;12.40;92.40;94982.48;1744497;82;21736;-51
2022/08/12 02:00:59;;;;;;;12.58;6.40;;;;;;;12.41;92.31;94980.52;1730780;80;20955;-50
2022/08/12 02:12:31;;;;;;;11.73;7.95;;;;;;;12.42;92.31;94975.16;1731745;80;21260;-51
2022/08/12 02:15:21;;;;;;;16.07;7.37;;;;;;;12.43;92.48;94970.55;1725867;80;21085;-51
2022/08/12 02:18:13;;;;;;;9.83;6.45;;;;;;;12.47;92.99;94969.03;1714726;82;21466;-51
2022/08/12 02:20:51;;;;;;;7.17;6.05;;;;;;;12.45;92.51;94972.23;1716991;82;21000;-51
2022/08/12 02:23:25;;;;;;;9.10;6.70;;;;;;;12.42;92.73;94971.77;1732713;82;20950;-51
2022/08/12 02:25:53;;;;;;;8.58;6.85;;;;;;;12.43;92.90;94974.68;1734783;80;21258;-51
2022/08/12 02:28:21;;;;;;;12.80;7.40;;;;;;;12.48;93.22;94971.32;1718395;82;20990;-51
2022/08/12 02:30:50;;;;;;;9.35;7.03;;;;;;;12.53;93.33;94977.03;1737418;82;20974;-51
2022/08/12 02:33:17;;;;;;;8.75;6.25;;;;;;;12.61;93.49;94973.38;1725526;80;21576;-51
2022/08/12 02:35:45;;;;;;;10.25;7.33;;;;;;;12.69;93.72;94975.41;1715356;81;21077;-52
2022/08/12 02:38:13;;;;;;;13.55;8.65;;;;;;;12.74;93.70;94963.76;1733008;80;21490;-51
2022/08/12 02:40:44;;;;;;;16.10;7.67;;;;;;;12.77;93.65;94971.75;1726416;81;20951;-52
2022/08/12 02:43:37;;;;;;;11.65;7.20;;;;;;;12.76;93.43;94972.98;1731990;81;20983;-51
2022/08/12 02:46:10;;;;;;;10.82;6.95;;;;;;;12.72;92.90;94966.84;1720091;81;21041;-51
2022/08/12 02:48:52;;;;;;;7.95;5.95;;;;;;;12.65;92.82;94956.06;1736752;82;21011;-51
2022/08/12 02:51:32;;;;;;;8.90;6.25;;;;;;;12.55;92.78;94958.02;1701792;81;21263;-51
2022/08/12 02:54:02;;;;;;;8.08;6.37;;;;;;;12.46;93.08;94957.22;1701647;79;21135;-51
2022/08/12 02:56:30;;;;;;;8.35;6.22;;;;;;;12.40;93.17;94950.77;1717805;80;21077;-51
2022/08/12 02:58:58;;;;;;;10.10;6.03;;;;;;;12.38;93.10;94949.06;1724982;81;20975;-51
2022/08/12 03:01:32;;;;;;;7.45;5.75;;;;;;;12.42;93.62;94952.45;1741208;80;21558;-51
2022/08/12 03:04:03;;;;;;;11.63;6.92;;;;;;;12.50;93.54;94951.56;1724658;79;21257;-51
2022/08/12 03:06:38;;;;;;;8.70;7.28;;;;;;;12.50;93.41;94955.70;1677399;82;20995;-51
2022/08/12 03:09:06;;;;;;;10.23;6.78;;;;;;;12.48;93.11;94965.80;1720008;80;21001;-51
2022/08/12 03:11:49;;;;;;;12.23;7.20;;;;;;;12.45;93.16;94969.48;1736846;80;20947;-51
2022/08/12 03:14:17;;;;;;;18.65;7.92;;;;;;;12.44;93.07;94969.95;1714256;80;21121;-51
2022/08/12 03:16:52;;;;;;;14.78;8.08;;;;;;;12.40;93.08;94965.16;1731536;80;21780;-51
2022/08/12 03:19:20;;;;;;;12.03;8.13;;;;;;;12.39;93.26;94956.13;1713953;80;21407;-51
2022/08/12 03:21:53;;;;;;;9.65;7.40;;;;;;;12.33;93.04;94959.33;1714053;82;21006;-52
2022/08/12 03:24:18;;;;;;;13.62;7.10;;;;;;;12.27;93.44;94968.01;1708413;81;21018;-50
2022/08/12 03:26:47;;;;;;;13.93;8.13;;;;;;;12.30;93.80;94969.86;1735259;80;21057;-50
2022/08/12 03:29:15;;;;;;;15.60;8.50;;;;;;;12.32;93.75;94975.72;1723280;80;21193;-51
2022/08/12 03:31:43;;;;;;;13.78;10.10;;;;;;;12.36;94.26;94979.70;1722799;81;20959;-51
2022/08/12 03:34:11;;;;;;;11.15;8.48;;;;;;;12.44;94.67;94978.22;1743119;82;20962;-50
2022/08/12 03:36:40;;;;;;;10.60;8.23;;;;;;;12.48;94.32;94980.98;1727132;80;20951;-51
2022/08/12 03:41:55;;;;;;;7.87;6.58;;;;;;;12.50;94.00;94990.98;1706152;81;22141;-51
2022/08/12 04:01:56;;;;;;;15.48;9.08;;;;;;;12.61;94.29;94990.72;1726425;80;22591;-52
2022/08/12 04:04:31;;;;;;;11.97;9.88;;;;;;;12.65;94.62;94999.63;1738030;81;21049;-50
2022/08/12 04:06:58;;;;;;;10.18;8.15;;;;;;;12.70;94.86;95001.78;1721525;80;21423;-51
2022/08/12 04:09:27;;;;;;;15.38;9.23;;;;;;;12.73;94.47;95006.39;1716396;80;21142;-50
2022/08/12 04:14:41;;;;;;;14.93;9.58;;;;;;;12.86;93.96;95000.79;1723968;80;21096;-51
2022/08/12 04:17:10;;;;;;;11.20;8.40;;;;;;;12.95;93.59;95001.61;1722700;80;21144;-51
2022/08/12 04:19:40;;;;;;;10.68;7.78;;;;;;;13.03;93.33;95006.21;1731404;82;20962;-50
2022/08/12 04:22:11;;;;;;;25.25;14.63;;;;;;;13.08;92.99;95001.48;1732840;81;22230;-50
2022/08/12 04:24:39;;;;;;;18.27;11.05;;;;;;;13.13;92.67;95003.05;1721930;81;21121;-51
2022/08/12 04:27:09;;;;;;;16.93;10.35;;;;;;;13.18;92.51;95003.03;1738648;81;21054;-50
2022/08/12 04:29:38;;;;;;;13.32;8.50;;;;;;;13.17;92.22;95008.41;1708250;81;21070;-50
2022/08/12 04:32:06;;;;;;;14.78;8.83;;;;;;;13.14;92.56;95006.56;1714124;80;21224;-51
2022/08/12 04:34:36;;;;;;;10.20;9.03;;;;;;;13.11;92.65;95017.14;1728905;80;21913;-52
2022/08/12 04:37:04;;;;;;;14.73;8.33;;;;;;;13.09;92.78;95018.22;1721096;80;21592;-53
2022/08/12 04:39:33;;;;;;;16.90;8.93;;;;;;;13.10;92.99;95020.51;1718676;81;21077;-54
2022/08/12 04:42:01;;;;;;;26.77;9.10;;;;;;;13.11;93.13;95021.29;1742415;81;20957;-52
2022/08/12 04:44:30;;;;;;;14.50;7.87;;;;;;;13.13;93.15;95024.36;1739387;80;21002;-52
2022/08/12 04:46:59;;;;;;;22.35;8.93;;;;;;;13.11;93.14;95019.91;1694897;82;21104;-52
2022/08/12 04:49:27;;;;;;;13.98;8.93;;;;;;;13.13;93.50;95020.22;1739165;81;21009;-52
2022/08/12 04:51:56;;;;;;;16.40;8.73;;;;;;;13.19;93.35;95025.29;1724128;81;21516;-53
2022/08/12 04:54:23;;;;;;;18.10;9.80;;;;;;;13.22;93.54;95034.05;1724917;82;21164;-53
2022/08/12 04:56:52;;;;;;;11.30;7.83;;;;;;;13.32;93.87;95031.47;1718615;81;21159;-52
2022/08/12 04:59:20;;;;;;;18.90;9.45;;;;;;;13.41;93.41;95026.72;1727778;80;21244;-52
2022/08/12 05:01:52;;;;;;;9.68;8.53;;;;;;;13.45;92.85;95025.20;1703614;81;21053;-53
2022/08/12 05:04:20;;;;;;;13.60;9.83;;;;;;;13.47;92.71;95035.19;1723462;81;20943;-53
2022/08/12 05:06:48;;;;;;;11.53;8.25;;;;;;;13.52;92.88;95029.83;1721503;80;21103;-52
2022/08/12 05:09:16;;;;;;;9.18;8.08;;;;;;;13.62;92.93;95028.59;1721502;81;20991;-52
2022/08/12 05:11:48;;;;;;;9.80;6.90;;;;;;;13.73;92.51;95031.69;1718252;82;21183;-51
2022/08/12 05:14:16;;;;;;;9.00;7.47;;;;;;;13.81;92.22;95026.62;1737068;80;21054;-50
2022/08/12 05:16:44;;;;;;;10.80;6.90;;;;;;;13.91;91.86;95019.24;1725798;80;21216;-50
2022/08/12 05:19:12;;;;;;;16.97;7.62;;;;;;;13.94;91.29;95026.61;1741007;81;21003;-50
2022/08/12 05:21:40;;;;;;;19.00;8.23;;;;;;;13.91;90.93;95015.69;1736574;79;20998;-50
2022/08/12 05:24:09;;;;;;;12.03;8.03;;;;;;;13.93;91.11;95012.62;1707308;81;21339;-50
2022/08/12 05:26:39;;;;;;;11.68;7.33;;;;;;;13.99;90.88;95011.41;1715613;82;21442;-51
2022/08/12 05:29:11;;;;;;;8.25;6.78;;;;;;;14.05;90.81;95001.24;1714852;81;21068;-51
2022/08/12 05:31:37;;;;;;;12.03;7.70;;;;;;;14.17;90.47;95004.49;1736060;80;21123;-50
2022/08/12 05:34:05;;;;;;;15.65;8.68;;;;;;;14.31;90.16;95006.00;1696943;81;21092;-50
2022/08/12 05:36:34;;;;;;;8.93;7.75;;;;;;;14.44;89.72;95005.95;1730033;81;21909;-51
2022/08/12 05:39:02;;;;;;;7.75;6.95;;;;;;;14.55;89.01;95013.17;1750649;79;21003;-51
2022/08/12 05:41:34;;;;;;;9.60;7.25;;;;;;;14.65;88.73;95009.75;1741173;79;20977;-51
2022/08/12 05:44:07;;;;;;;9.50;7.17;;;;;;;14.78;88.21;95005.55;1720955;81;21096;-53
2022/08/12 05:46:35;;;;;;;10.35;7.33;;;;;;;14.93;87.40;95002.86;1693272;83;21081;-50
2022/08/12 05:49:03;;;;;;;15.43;8.10;;;;;;;15.02;86.48;95006.98;1687196;81;21440;-55
2022/08/12 05:51:33;;;;;;;12.20;6.92;;;;;;;15.04;85.96;95006.65;1711583;82;21482;-50
2022/08/12 05:54:01;;;;;;;13.60;9.05;;;;;;;15.07;85.67;94998.81;1707030;82;21078;-51
2022/08/12 05:56:31;;;;;;;18.75;10.93;;;;;;;15.16;85.52;94998.00;1729907;80;21053;-49
2022/08/12 05:59:00;;;;;;;30.35;17.52;;;;;;;15.24;85.16;94990.25;1724403;80;21029;-51
2022/08/12 06:01:27;;;;;;;14.43;8.50;;;;;;;15.29;84.66;94995.17;1719976;81;21112;-52
2022/08/12 06:03:56;;;;;;;9.15;7.00;;;;;;;15.31;84.29;94978.83;1734461;80;21335;-55
2022/08/12 06:06:24;;;;;;;20.30;8.25;;;;;;;15.33;84.25;94976.34;1728061;81;21025;-53
2022/08/12 06:08:53;;;;;;;12.58;7.45;;;;;;;15.38;84.06;94978.46;1727258;80;21066;-52
2022/08/12 06:11:23;;;;;;;12.82;7.28;;;;;;;15.42;83.56;94974.92;1728316;81;21025;-52
2022/08/12 06:13:51;;;;;;;54.75;19.17;;;;;;;15.47;83.87;94972.09;1742507;80;21253;-52
2022/08/12 06:16:20;;;;;;;12.65;8.10;;;;;;;15.56;83.36;94969.27;1747244;81;21378;-53
2022/08/12 06:18:48;;;;;;;7.78;6.92;;;;;;;15.64;82.97;94971.20;1735383;80;21073;-56
2022/08/12 06:21:17;;;;;;;13.58;7.28;;;;;;;15.76;82.71;94967.39;1730014;80;21711;-53
2022/08/12 06:23:45;;;;;;;15.70;7.08;;;;;;;15.92;82.04;94965.56;1756839;78;21496;-52
2022/08/12 06:26:15;;;;;;;12.90;6.87;;;;;;;16.00;81.47;94957.02;1746009;79;21085;-53
2022/08/12 06:28:43;;;;;;;16.35;7.05;;;;;;;16.13;81.14;94962.30;1738888;80;21084;-56
2022/08/12 06:31:17;;;;;;;17.12;7.65;;;;;;;16.28;80.61;94965.86;1746202;80;21002;-50
2022/08/12 06:33:46;;;;;;;7.25;6.20;;;;;;;16.36;79.75;94965.78;1746742;80;21519;-52
2022/08/12 06:36:16;;;;;;;11.20;8.70;;;;;;;16.43;79.17;94967.41;1724940;81;21506;-52
2022/08/12 06:38:44;;;;;;;8.85;7.03;;;;;;;16.44;78.80;94968.33;1707902;81;21278;-53
2022/08/12 06:43:58;;;;;;;10.63;6.62;;;;;;;16.48;78.54;94962.56;1735444;82;21034;-51
2022/08/12 06:46:28;;;;;;;14.30;6.78;;;;;;;16.54;78.31;94966.22;1751912;79;21119;-54
2022/08/12 06:48:57;;;;;;;15.15;6.45;;;;;;;16.59;78.19;94964.14;1752753;80;21484;-50
2022/08/12 06:51:27;;;;;;;6.45;5.62;;;;;;;16.68;78.04;94963.41;1755195;81;21278;-52
2022/08/12 06:53:55;;;;;;;7.87;6.45;;;;;;;16.78;77.64;94964.86;1753847;81;21077;-50
2022/08/12 06:56:23;;;;;;;8.03;6.67;;;;;;;16.86;78.35;94961.03;1747076;78;21005;-51
2022/08/12 06:58:51;;;;;;;7.75;6.30;;;;;;;16.91;78.49;94964.53;1762848;80;21060;-51
2022/08/12 07:01:19;;;;;;;7.60;6.80;;;;;;;16.94;78.29;94960.78;1756630;80;21064;-54
2022/08/12 07:03:47;;;;;;;8.35;7.03;;;;;;;16.99;78.14;94956.70;1731316;80;21244;-55
2022/08/12 07:06:15;;;;;;;11.08;7.05;;;;;;;17.05;77.54;94958.16;1747883;80;21164;-57
2022/08/12 07:08:43;;;;;;;6.87;5.62;;;;;;;17.13;77.57;94957.27;1746582;81;21421;-56
2022/08/12 07:11:13;;;;;;;20.88;7.35;;;;;;;17.25;77.46;94952.66;1724562;81;21042;-57
2022/08/12 07:13:49;;;;;;;14.95;6.70;;;;;;;17.36;76.69;94956.98;1710699;82;21200;-56
2022/08/12 07:16:18;;;;;;;14.80;7.33;;;;;;;17.42;76.50;94960.63;1726164;81;21966;-60
2022/08/12 07:18:46;;;;;;;12.07;7.33;;;;;;;17.47;76.20;94957.89;1743120;80;21032;-55
2022/08/12 07:21:14;;;;;;;11.18;7.58;;;;;;;17.53;76.44;94957.97;1736324;81;21483;-58
2022/08/12 07:23:41;;;;;;;11.05;6.40;;;;;;;17.60;76.18;94957.55;1723203;80;20958;-57
2022/08/12 07:26:11;;;;;;;16.27;7.87;;;;;;;17.61;75.98;94954.29;1742429;80;21003;-59
2022/08/12 07:28:40;;;;;;;9.30;6.78;;;;;;;17.59;75.80;94951.23;1749413;80;21196;-55
2022/08/12 07:31:11;;;;;;;8.53;6.72;;;;;;;17.58;75.97;94954.48;1730677;80;21026;-57
2022/08/12 07:33:40;;;;;;;6.75;6.08;;;;;;;17.54;76.01;94949.77;1707908;82;21561;-57
2022/08/12 07:36:12;;;;;;;10.90;7.00;;;;;;;17.47;75.74;94941.84;1714835;81;21062;-56
2022/08/12 07:38:46;;;;;;;9.93;7.03;;;;;;;17.44;76.07;94938.01;1693788;82;21098;-57
2022/08/12 07:41:20;;;;;;;6.60;6.00;;;;;;;17.55;76.66;94941.55;1718580;81;21251;-56
2022/08/12 07:43:52;;;;;;;8.83;6.58;;;;;;;17.74;76.53;94944.19;1702163;82;21309;-56
2022/08/12 07:46:26;;;;;;;8.08;6.17;;;;;;;17.93;75.83;94948.98;1658826;83;21077;-55
2022/08/12 07:48:55;;;;;;;8.83;6.60;;;;;;;18.05;75.40;94938.73;1734034;79;21501;-59
2022/08/12 07:51:24;;;;;;;9.75;6.92;;;;;;;18.08;74.92;94937.73;1745652;81;21123;-58
2022/08/12 07:53:53;;;;;;;6.30;5.70;;;;;;;18.08;74.63;94941.91;1699134;82;21248;-56
2022/08/12 07:56:21;;;;;;;9.88;6.10;;;;;;;18.06;74.29;94938.86;1715745;82;21482;-56
2022/08/12 07:58:49;;;;;;;6.33;5.72;;;;;;;18.06;74.15;94936.08;1742624;80;21030;-57
2022/08/12 08:01:20;;;;;;;10.30;6.58;;;;;;;18.09;74.23;94937.27;1727320;81;21105;-56
2022/08/12 08:06:41;;;;;;;10.00;7.22;;;;;;;18.34;74.59;94933.73;1712949;81;21904;-56
2022/08/12 08:09:12;;;;;;;14.90;7.25;;;;;;;18.47;73.53;94935.50;1718814;81;20961;-58
2022/08/12 08:14:31;;;;;;;10.60;6.47;;;;;;;18.65;73.00;94940.08;1728946;81;21010;-57
2022/08/12 08:17:02;;;;;;;9.43;6.20;;;;;;;18.69;72.78;94939.25;1727011;80;21074;-57
2022/08/12 08:19:32;;;;;;;8.33;7.28;;;;;;;18.73;72.39;94933.43;1705435;82;21296;-57
2022/08/12 08:22:00;;;;;;;11.08;7.22;;;;;;;18.73;72.27;94926.45;1725427;80;21051;-60
2022/08/12 08:24:29;;;;;;;12.35;7.58;;;;;;;18.72;72.77;94932.68;1734835;81;21049;-57
2022/08/12 08:26:58;;;;;;;11.85;7.50;;;;;;;18.70;72.51;94928.23;1715291;82;21184;-57
2022/08/12 08:29:28;;;;;;;12.50;8.10;;;;;;;18.67;72.77;94927.80;1710041;81;21778;-56
2022/08/12 08:32:00;;;;;;;10.40;7.45;;;;;;;18.73;72.78;94923.05;1740233;80;21272;-56
2022/08/12 08:34:32;;;;;;;14.85;7.35;;;;;;;18.85;72.72;94915.53;1749696;79;21081;-57
2022/08/12 08:37:00;;;;;;;7.87;6.50;;;;;;;18.96;72.18;94919.16;1723103;81;21592;-57
2022/08/12 08:39:30;;;;;;;10.75;7.22;;;;;;;19.12;71.98;94915.72;1739884;80;21110;-61
2022/08/12 08:44:44;;;;;;;11.28;6.80;;;;;;;19.47;70.83;94907.04;1732682;82;21117;-52
2022/08/12 08:47:12;;;;;;;12.50;7.60;;;;;;;19.73;70.58;94915.40;1720744;80;21075;-52
2022/08/12 08:49:40;;;;;;;16.20;7.20;;;;;;;19.93;69.85;94918.66;1737609;80;21392;-56
2022/08/12 08:52:10;;;;;;;9.25;7.05;;;;;;;20.09;69.30;94917.31;1732187;81;21044;-54
2022/08/12 08:54:39;;;;;;;8.20;6.80;;;;;;;20.16;68.96;94915.45;1741228;80;21010;-53
2022/08/12 08:57:07;;;;;;;9.35;6.42;;;;;;;20.21;68.17;94917.48;1712920;82;21234;-52
2022/08/12 08:59:34;;;;;;;12.43;7.37;;;;;;;20.24;68.42;94917.86;1717652;82;21013;-51
2022/08/12 09:02:03;;;;;;;9.40;6.58;;;;;;;20.25;68.25;94920.78;1721487;81;21849;-54
2022/08/12 09:04:30;;;;;;;10.75;6.60;;;;;;;20.25;68.27;94929.17;1737145;81;21604;-50
2022/08/12 09:06:59;;;;;;;11.12;7.70;;;;;;;20.19;68.12;94919.38;1716499;80;21596;-53
2022/08/12 09:09:28;;;;;;;10.58;7.60;;;;;;;20.13;67.96;94923.41;1761133;80;21184;-52
2022/08/12 09:14:45;;;;;;;7.42;6.42;;;;;;;20.09;68.12;94931.94;1725359;81;21045;-51
2022/08/12 09:17:13;;;;;;;11.60;6.72;;;;;;;19.97;68.38;94929.72;1740744;79;21494;-54
2022/08/12 09:19:40;;;;;;;10.00;7.37;;;;;;;19.88;68.97;94925.73;1720317;81;21074;-52
2022/08/12 09:22:09;;;;;;;9.03;6.95;;;;;;;19.77;69.74;94933.31;1710822;81;21248;-53
2022/08/12 09:24:38;;;;;;;12.30;7.35;;;;;;;19.66;69.94;94933.26;1730069;80;21074;-53
2022/08/12 09:27:07;;;;;;;11.25;7.37;;;;;;;19.62;70.64;94927.16;1701011;82;21086;-53
2022/08/12 09:29:36;;;;;;;13.15;7.15;;;;;;;19.60;70.67;94925.50;1708104;81;21076;-51
2022/08/12 09:32:05;;;;;;;14.18;7.83;;;;;;;19.59;70.93;94923.98;1743867;80;21048;-52
2022/08/12 09:34:35;;;;;;;9.30;7.85;;;;;;;19.59;71.10;94924.72;1750170;80;21181;-52
2022/08/12 09:37:03;;;;;;;12.07;7.80;;;;;;;19.57;70.98;94921.67;1722475;80;21069;-51
2022/08/12 09:39:31;;;;;;;12.68;7.90;;;;;;;19.58;70.65;94921.80;1753759;80;21042;-51
2022/08/12 09:47:35;;;;;;;11.90;7.15;;;;;;;19.55;71.09;94920.67;1717949;80;21268;-51
2022/08/12 09:50:04;;;;;;;9.53;6.90;;;;;;;19.52;71.32;94920.28;1723601;79;21108;-52
2022/08/12 09:52:31;;;;;;;8.50;7.03;;;;;;;19.47;71.49;94923.78;1748710;81;21049;-53
2022/08/12 09:55:01;;;;;;;8.10;7.05;;;;;;;19.41;72.06;94925.80;1747725;80;21247;-52
2022/08/12 09:57:29;;;;;;;10.70;7.03;;;;;;;19.37;72.29;94930.20;1733922;80;21116;-53
2022/08/12 09:59:56;;;;;;;8.53;6.40;;;;;;;19.33;72.57;94926.89;1721658;80;21885;-58
2022/08/12 10:02:25;;;;;;;12.90;6.60;;;;;;;19.30;72.96;94929.30;1732824;80;21045;-54
2022/08/12 10:04:56;;;;;;;9.05;6.70;;;;;;;19.32;73.35;94920.41;1748405;79;21163;-51
2022/08/12 10:07:22;;;;;;;10.13;7.10;;;;;;;19.36;73.54;94923.09;1746374;81;21015;-54
2022/08/12 10:09:50;;;;;;;12.50;7.40;;;;;;;19.37;73.74;94924.63;1693570;82;21035;-54
2022/08/12 10:15:05;;;;;;;11.43;8.15;;;;;;;19.42;73.88;94915.54;1747181;79;21080;-51
2022/08/12 10:17:33;;;;;;;8.88;7.62;;;;;;;19.45;74.05;94917.33;1729647;80;21565;-54
2022/08/12 10:20:01;;;;;;;11.28;7.42;;;;;;;19.52;74.56;94914.70;1728868;81;21605;-55
2022/08/12 10:22:30;;;;;;;12.55;8.30;;;;;;;19.61;74.72;94908.27;1724129;81;21101;-51
2022/08/12 10:30:34;;;;;;;16.23;9.80;;;;;;;20.03;74.75;94908.17;1747313;81;21111;-52
2022/08/12 10:33:04;;;;;;;12.37;9.25;;;;;;;20.21;74.08;94903.51;1748230;79;20970;-51
2022/08/12 10:35:32;;;;;;;12.73;9.28;;;;;;;20.39;73.79;94901.63;1752974;81;21410;-51
2022/08/12 10:38:01;;;;;;;11.60;8.90;;;;;;;20.53;73.28;94900.63;1742809;80;21222;-51
2022/08/12 10:40:30;;;;;;;28.38;12.53;;;;;;;20.64;72.99;94897.81;1734059;81;21600;-51
2022/08/12 10:45:45;;;;;;;14.10;10.08;;;;;;;20.75;72.75;94893.63;1741986;81;21003;-52
2022/08/12 10:48:14;;;;;;;16.73;10.35;;;;;;;20.85;72.58;94889.31;1687173;82;20968;-52
2022/08/12 10:50:42;;;;;;;19.07;10.60;;;;;;;20.99;71.89;94891.08;1677880;83;21512;-52
2022/08/12 10:53:11;;;;;;;13.32;10.38;;;;;;;21.12;71.09;94889.27;1702513;83;21013;-53
2022/08/12 10:55:39;;;;;;;21.73;11.12;;;;;;;21.30;70.70;94889.38;1719643;81;21100;-53
2022/08/12 10:58:07;;;;;;;15.48;11.00;;;;;;;21.42;69.58;94888.05;1711535;81;21084;-52
2022/08/12 11:00:37;;;;;;;14.03;10.55;;;;;;;21.50;69.46;94890.45;1727672;80;21549;-56
2022/08/12 11:03:06;;;;;;;19.60;12.40;;;;;;;21.57;69.11;94884.30;1697424;80;21424;-53
2022/08/12 11:05:35;;;;;;;21.30;12.13;;;;;;;21.62;68.73;94885.72;1737736;80;21500;-51
2022/08/12 11:08:04;;;;;;;14.10;11.48;;;;;;;21.67;68.30;94885.59;1719624;81;21089;-52
2022/08/12 11:10:33;;;;;;;13.95;11.80;;;;;;;21.69;67.92;94881.63;1719153;82;21002;-53
2022/08/12 11:13:01;;;;;;;18.85;11.78;;;;;;;21.74;67.81;94884.41;1727401;81;21129;-53
2022/08/12 11:15:31;;;;;;;13.05;11.55;;;;;;;21.77;68.07;94884.77;1730071;81;21712;-53
2022/08/12 11:17:59;;;;;;;13.13;11.70;;;;;;;21.82;68.19;94881.17;1743175;80;21056;-52
2022/08/12 11:20:27;;;;;;;16.23;10.88;;;;;;;21.85;68.21;94881.53;1720051;80;21054;-54
2022/08/12 11:23:00;;;;;;;18.20;11.95;;;;;;;21.83;67.81;94882.70;1736837;79;21508;-53
2022/08/12 11:25:27;;;;;;;14.38;10.85;;;;;;;21.87;67.82;94878.23;1737767;79;21041;-55
2022/08/12 11:27:56;;;;;;;12.88;10.88;;;;;;;21.88;66.84;94881.16;1722001;81;21569;-56
2022/08/12 11:30:24;;;;;;;18.17;12.10;;;;;;;21.80;67.01;94883.73;1747144;81;21574;-55
2022/08/12 11:32:52;;;;;;;14.53;10.43;;;;;;;21.75;67.71;94871.15;1766477;80;21482;-52
2022/08/12 11:35:20;;;;;;;16.07;10.30;;;;;;;21.72;68.54;94874.36;1771383;80;21104;-54
2022/08/12 11:37:48;;;;;;;14.70;10.60;;;;;;;21.62;68.81;94874.52;1749938;79;21131;-51
2022/08/12 11:40:16;;;;;;;14.40;10.48;;;;;;;21.55;69.29;94879.86;1718760;81;21209;-52
2022/08/12 11:42:44;;;;;;;12.50;9.98;;;;;;;21.48;69.77;94886.76;1738870;80;21463;-51
2022/08/12 11:45:12;;;;;;;11.83;10.23;;;;;;;21.41;70.16;94880.92;1723391;80;21085;-52
2022/08/12 11:47:40;;;;;;;13.38;9.25;;;;;;;21.28;70.48;94882.13;1739934;81;21468;-50
2022/08/12 11:50:09;;;;;;;14.43;11.43;;;;;;;21.12;70.97;94875.28;1719027;81;21092;-54
2022/08/12 11:52:37;;;;;;;13.62;11.50;;;;;;;21.01;71.68;94877.34;1739886;81;21465;-52
2022/08/12 11:55:06;;;;;;;14.47;11.80;;;;;;;20.92;72.07;94877.63;1728796;80;21146;-56
2022/08/12 11:57:51;;;;;;;11.43;10.23;;;;;;;20.85;72.63;94879.52;1690779;83;21095;-52
2022/08/12 12:00:19;;;;;;;12.82;10.95;;;;;;;20.79;72.56;94880.14;1700912;82;21182;-51
2022/08/12 12:02:46;;;;;;;13.70;11.83;;;;;;;20.68;72.60;94873.93;1681036;83;21061;-54
2022/08/12 12:05:18;;;;;;;14.40;12.60;;;;;;;20.66;73.48;94874.30;1722447;82;21104;-54
2022/08/12 12:07:46;;;;;;;;;;;;;;;20.60;73.55;94877.74;1709881;82;21056;-53
2022/08/12 12:10:19;;;;;;;18.55;13.75;;;;;;;20.57;73.84;94873.92;1726746;82;20201;-54
2022/08/12 12:12:55;;;;;;;16.75;14.73;;;;;;;20.54;73.87;94879.78;1699229;82;21062;-53
2022/08/12 12:15:24;;;;;;;21.60;13.40;;;;;;;20.54;74.15;94880.53;1709439;82;21529;-52
2022/08/12 12:18:02;;;;;;;16.67;12.37;;;;;;;20.55;74.63;94879.91;1720653;81;21119;-53
2022/08/12 12:20:26;;;;;;;17.02;14.65;;;;;;;20.53;74.81;94874.82;1678602;82;21106;-51
2022/08/12 12:22:55;;;;;;;17.73;15.85;;;;;;;20.57;74.93;94878.77;1681791;83;21045;-53
2022/08/12 12:25:25;;;;;;;19.40;15.68;;;;;;;20.55;74.75;94875.07;1715456;81;21015;-57
2022/08/12 12:27:57;;;;;;;22.75;16.40;;;;;;;20.53;74.66;94872.67;1715694;82;21136;-51
2022/08/12 12:30:26;;;;;;;18.90;16.87;;;;;;;20.52;74.77;94871.16;1705327;82;21187;-54
2022/08/12 12:32:55;;;;;;;21.35;17.52;;;;;;;20.56;75.26;94874.45;1708859;82;21538;-53
2022/08/12 12:35:23;;;;;;;20.05;14.38;;;;;;;20.59;75.14;94874.17;1734016;80;21057;-53
2022/08/12 12:38:02;;;;;;;22.20;16.73;;;;;;;20.66;74.96;94865.29;1746884;79;21101;-51
2022/08/12 12:40:38;;;;;;;23.77;17.92;;;;;;;20.74;74.64;94867.69;1695522;82;21386;-54
2022/08/12 12:43:06;;;;;;;25.82;19.57;;;;;;;20.85;74.02;94861.34;1710425;82;21626;-52
2022/08/12 12:45:35;;;;;;;22.62;18.70;;;;;;;20.99;73.56;94860.31;1719454;81;21057;-51
2022/08/12 12:48:08;;;;;;;24.75;18.42;;;;;;;21.15;72.34;94857.47;1701335;82;21557;-52
2022/08/12 12:50:39;;;;;;;27.10;17.95;;;;;;;21.32;71.72;94855.38;1751219;80;20998;-53
2022/08/12 12:53:08;;;;;;;19.17;16.55;;;;;;;21.49;71.33;94856.08;1736691;79;21096;-53
2022/08/12 12:55:36;;;;;;;28.12;18.17;;;;;;;21.66;70.61;94854.66;1746321;80;21205;-50
2022/08/12 12:58:13;;;;;;;29.02;19.65;;;;;;;21.86;70.05;94858.50;1716670;81;20965;-51
2022/08/12 13:00:41;;;;;;;19.85;17.12;;;;;;;22.03;68.88;94860.56;1718909;81;21510;-53
2022/08/12 13:03:07;;;;;;;23.95;19.10;;;;;;;22.15;68.07;94850.91;1718030;82;21115;-52
2022/08/12 13:05:38;;;;;;;29.70;18.85;;;;;;;22.29;67.09;94857.47;1689477;82;21070;-54
2022/08/12 13:08:29;;;;;;;25.35;20.55;;;;;;;22.33;66.77;94847.47;1726701;81;21219;-54
2022/08/12 13:11:02;;;;;;;30.25;19.70;;;;;;;22.37;66.62;94847.98;1741444;80;21052;-52
2022/08/12 13:13:31;;;;;;;26.52;21.07;;;;;;;22.44;66.20;94843.88;1733125;80;21049;-52
2022/08/12 13:16:00;;;;;;;33.02;21.85;;;;;;;22.48;66.14;94847.91;1715079;81;21317;-55
2022/08/12 13:18:39;;;;;;;27.10;21.20;;;;;;;22.49;66.03;94848.68;1734692;81;21072;-52
2022/08/12 13:21:05;;;;;;;25.52;21.05;;;;;;;22.49;66.04;94849.42;1744287;80;21167;-52
2022/08/12 13:23:33;;;;;;;23.52;19.75;;;;;;;22.48;65.46;94854.16;1721589;82;22239;-54
2022/08/12 13:26:01;;;;;;;21.82;19.37;;;;;;;22.43;65.27;94847.31;1731085;82;21309;-52
2022/08/12 13:28:31;;;;;;;30.45;20.15;;;;;;;22.43;65.29;94847.31;1728020;82;21013;-55
2022/08/12 13:30:59;;;;;;;23.55;21.05;;;;;;;22.46;65.01;94843.46;1711916;81;21096;-54
2022/08/12 13:33:27;;;;;;;22.77;17.85;;;;;;;22.49;65.10;94842.41;1676192;82;21903;-56
2022/08/12 13:36:02;;;;;;;24.40;19.40;;;;;;;22.52;65.37;94844.83;1727657;80;21040;-50